Kelowna Airport
CYLW : now visible

Airfield :











YOU CAN JOIN US ON...

 
LOGIN :

Register | Disclaimer

   EN    FR    IT 

 









Legend :    VFR   Marginal VFR   IFR   Intensive IFR   Very Intensive IFR
Visi :
Ceiling :
>= 8 km
>= 3000ft
5 to 8 km
1000 to 3000 ft
1500m to 5 km
500 to 1000 ft
800 to 1500m
200 to 500 ft
< 800m
< 200 ft
Symbols :   Thunderstorms  Fog  Heavy snow  Heavy precipitations  Wind > 20 kt






- Airport Elevation : 1409 ft
- IATA code : YLW


CYLW - Kelowna

CURRENT METAR :
  • 291500Z AUTO 00000KT 9SM FEW035 OVC110 01/01 A3008 RMK SLP205

EXPIRED METARs :
  • 291400Z AUTO 07003KT 9SM OVC038 01/01 A3013 RMK SLP221
  • 291300Z AUTO 03003KT 330V050 9SM OVC034 00/00 A3013 RMK SLP223
  • 291226Z AUTO 29003KT 280V010 9SM SCT011 OVC034 01/00 A3014 RMK SLP225

TAF TAF CYLW
Valid from the 29 at 13:00 until the 30 at 01:00 UTC


291238Z 2913/3001 VRB03KT P6SM SCT012 BKN030 OVC120
TEMPO 2913/2915 BKN012
PROB30 2913/2915 BKN008
FM291500 VRB03KT P6SM SCT015 BKN030
TEMPO 2915/2918 5SM -RASN BR
FM291800 17005KT P6SM -RA BKN025 RMK FCST BASED ON AUTO OBS. NXT FCST BY 291900Z



MET'MAP, your aeronautical weather chart ! - Copyright ORBIFLY December 2007 - Disclaimer

ORBIFLY MET'MAP TEAM :

Programming & Development : Alexandra Zaïnal
Concept & original design : Baudouin d'Aumeries
Assistance for programming : Marc-Olivier Méhu
Technical & hardware support : Manuel Goepfert

Contact : metmap@orbifly.com




SOURCES & CREDITS :

   NOAA       Earth
Advisory